sensor_id;sensor_type;location;lat;lon;timestamp;P1;durP1;ratioP1;P2;durP2;ratioP2
43216;SDS011;60511;42.686;23.300;2023-04-15T00:01:16;3.97;;;3.25;;
43216;SDS011;60511;42.686;23.300;2023-04-15T00:03:18;3.92;;;2.72;;
43216;SDS011;60511;42.686;23.300;2023-04-15T00:05:18;3.75;;;3.35;;
43216;SDS011;60511;42.686;23.300;2023-04-15T00:07:19;5.03;;;3.10;;
43216;SDS011;60511;42.686;23.300;2023-04-15T00:09:19;3.88;;;3.20;;
43216;SDS011;60511;42.686;23.300;2023-04-15T00:11:20;3.80;;;3.33;;
43216;SDS011;60511;42.686;23.300;2023-04-15T00:13:20;3.28;;;2.85;;
43216;SDS011;60511;42.686;23.300;2023-04-15T00:15:21;3.22;;;2.28;;
43216;SDS011;60511;42.686;23.300;2023-04-15T00:17:21;3.78;;;2.67;;
43216;SDS011;60511;42.686;23.300;2023-04-15T00:19:22;4.25;;;3.33;;
43216;SDS011;60511;42.686;23.300;2023-04-15T00:21:23;4.65;;;3.40;;
43216;SDS011;60511;42.686;23.300;2023-04-15T00:23:24;3.30;;;2.95;;
43216;SDS011;60511;42.686;23.300;2023-04-15T00:25:25;3.70;;;3.40;;
43216;SDS011;60511;42.686;23.300;2023-04-15T00:27:25;3.42;;;2.92;;
43216;SDS011;60511;42.686;23.300;2023-04-15T00:29:25;3.42;;;2.90;;
43216;SDS011;60511;42.686;23.300;2023-04-15T00:31:26;3.63;;;3.33;;
43216;SDS011;60511;42.686;23.300;2023-04-15T00:33:26;4.40;;;3.40;;
43216;SDS011;60511;42.686;23.300;2023-04-15T00:35:26;3.53;;;2.85;;
43216;SDS011;60511;42.686;23.300;2023-04-15T00:37:27;4.07;;;3.20;;
43216;SDS011;60511;42.686;23.300;2023-04-15T00:39:28;4.28;;;2.80;;
43216;SDS011;60511;42.686;23.300;2023-04-15T00:41:28;4.28;;;2.88;;
43216;SDS011;60511;42.686;23.300;2023-04-15T00:43:29;4.50;;;3.00;;
43216;SDS011;60511;42.686;23.300;2023-04-15T00:45:29;4.30;;;2.80;;
43216;SDS011;60511;42.686;23.300;2023-04-15T00:47:29;3.28;;;2.60;;
43216;SDS011;60511;42.686;23.300;2023-04-15T00:49:32;3.63;;;2.90;;
43216;SDS011;60511;42.686;23.300;2023-04-15T00:51:33;4.30;;;3.10;;
43216;SDS011;60511;42.686;23.300;2023-04-15T00:53:35;3.47;;;3.03;;
43216;SDS011;60511;42.686;23.300;2023-04-15T00:55:39;3.50;;;2.67;;
43216;SDS011;60511;42.686;23.300;2023-04-15T00:59:40;3.47;;;2.88;;
43216;SDS011;60511;42.686;23.300;2023-04-15T01:01:40;4.30;;;3.10;;
43216;SDS011;60511;42.686;23.300;2023-04-15T01:03:41;3.45;;;2.88;;
43216;SDS011;60511;42.686;23.300;2023-04-15T01:05:42;3.78;;;2.92;;
43216;SDS011;60511;42.686;23.300;2023-04-15T01:07:42;5.22;;;3.17;;
43216;SDS011;60511;42.686;23.300;2023-04-15T01:09:43;3.55;;;3.10;;
43216;SDS011;60511;42.686;23.300;2023-04-15T01:11:44;4.53;;;3.22;;
43216;SDS011;60511;42.686;23.300;2023-04-15T01:13:45;3.97;;;2.90;;
43216;SDS011;60511;42.686;23.300;2023-04-15T01:15:46;3.67;;;3.20;;
43216;SDS011;60511;42.686;23.300;2023-04-15T01:17:46;4.30;;;3.22;;
43216;SDS011;60511;42.686;23.300;2023-04-15T01:19:47;3.65;;;3.03;;
43216;SDS011;60511;42.686;23.300;2023-04-15T01:21:48;4.20;;;3.10;;
43216;SDS011;60511;42.686;23.300;2023-04-15T01:23:48;3.53;;;2.95;;
43216;SDS011;60511;42.686;23.300;2023-04-15T01:25:51;4.05;;;3.13;;
43216;SDS011;60511;42.686;23.300;2023-04-15T01:27:52;3.88;;;3.00;;
43216;SDS011;60511;42.686;23.300;2023-04-15T01:29:52;3.63;;;2.85;;
43216;SDS011;60511;42.686;23.300;2023-04-15T01:31:54;3.53;;;2.80;;
43216;SDS011;60511;42.686;23.300;2023-04-15T01:33:55;3.45;;;2.90;;
43216;SDS011;60511;42.686;23.300;2023-04-15T01:35:56;3.35;;;2.92;;
43216;SDS011;60511;42.686;23.300;2023-04-15T01:37:58;3.47;;;3.00;;
43216;SDS011;60511;42.686;23.300;2023-04-15T01:40:04;3.55;;;3.03;;
43216;SDS011;60511;42.686;23.300;2023-04-15T01:42:05;3.60;;;2.70;;
43216;SDS011;60511;42.686;23.300;2023-04-15T01:44:06;4.35;;;2.90;;
43216;SDS011;60511;42.686;23.300;2023-04-15T01:46:07;4.10;;;3.28;;
43216;SDS011;60511;42.686;23.300;2023-04-15T01:48:07;4.93;;;3.38;;
43216;SDS011;60511;42.686;23.300;2023-04-15T01:50:08;4.13;;;3.25;;
43216;SDS011;60511;42.686;23.300;2023-04-15T01:52:09;3.88;;;3.08;;
43216;SDS011;60511;42.686;23.300;2023-04-15T01:54:10;4.82;;;3.50;;
43216;SDS011;60511;42.686;23.300;2023-04-15T01:56:10;3.13;;;2.60;;
43216;SDS011;60511;42.686;23.300;2023-04-15T01:58:10;3.88;;;3.33;;
43216;SDS011;60511;42.686;23.300;2023-04-15T02:00:11;3.78;;;3.08;;
43216;SDS011;60511;42.686;23.300;2023-04-15T02:02:12;5.35;;;3.80;;
43216;SDS011;60511;42.686;23.300;2023-04-15T02:04:12;3.65;;;2.97;;
43216;SDS011;60511;42.686;23.300;2023-04-15T02:06:15;3.13;;;2.78;;
43216;SDS011;60511;42.686;23.300;2023-04-15T02:08:17;4.65;;;2.97;;
43216;SDS011;60511;42.686;23.300;2023-04-15T02:10:17;3.35;;;2.58;;
43216;SDS011;60511;42.686;23.300;2023-04-15T02:12:18;3.10;;;2.63;;
43216;SDS011;60511;42.686;23.300;2023-04-15T02:14:18;3.92;;;3.22;;
43216;SDS011;60511;42.686;23.300;2023-04-15T02:16:19;4.07;;;3.00;;
43216;SDS011;60511;42.686;23.300;2023-04-15T02:18:19;3.00;;;2.45;;
43216;SDS011;60511;42.686;23.300;2023-04-15T02:20:20;3.15;;;2.80;;
43216;SDS011;60511;42.686;23.300;2023-04-15T02:22:21;3.80;;;2.65;;
43216;SDS011;60511;42.686;23.300;2023-04-15T02:24:22;3.30;;;3.00;;
43216;SDS011;60511;42.686;23.300;2023-04-15T02:26:22;3.70;;;3.20;;
43216;SDS011;60511;42.686;23.300;2023-04-15T02:28:24;3.85;;;2.92;;
43216;SDS011;60511;42.686;23.300;2023-04-15T02:30:24;3.25;;;2.80;;
43216;SDS011;60511;42.686;23.300;2023-04-15T02:32:26;3.75;;;2.95;;
43216;SDS011;60511;42.686;23.300;2023-04-15T02:34:26;3.75;;;2.88;;
43216;SDS011;60511;42.686;23.300;2023-04-15T02:36:26;4.00;;;3.15;;
43216;SDS011;60511;42.686;23.300;2023-04-15T02:38:28;3.58;;;2.65;;
43216;SDS011;60511;42.686;23.300;2023-04-15T02:40:30;3.40;;;2.97;;
43216;SDS011;60511;42.686;23.300;2023-04-15T02:42:31;3.53;;;2.95;;
43216;SDS011;60511;42.686;23.300;2023-04-15T02:44:31;2.90;;;2.60;;
43216;SDS011;60511;42.686;23.300;2023-04-15T02:46:33;5.07;;;3.45;;
43216;SDS011;60511;42.686;23.300;2023-04-15T02:48:33;4.35;;;3.05;;
43216;SDS011;60511;42.686;23.300;2023-04-15T02:50:33;3.70;;;2.95;;
43216;SDS011;60511;42.686;23.300;2023-04-15T02:52:34;4.47;;;3.20;;
43216;SDS011;60511;42.686;23.300;2023-04-15T02:54:34;3.47;;;2.80;;
43216;SDS011;60511;42.686;23.300;2023-04-15T02:56:35;3.50;;;3.20;;
43216;SDS011;60511;42.686;23.300;2023-04-15T02:58:35;4.68;;;3.17;;
43216;SDS011;60511;42.686;23.300;2023-04-15T03:00:36;3.65;;;2.92;;
43216;SDS011;60511;42.686;23.300;2023-04-15T03:02:37;4.03;;;3.08;;
43216;SDS011;60511;42.686;23.300;2023-04-15T03:04:38;3.42;;;2.95;;
43216;SDS011;60511;42.686;23.300;2023-04-15T03:06:39;4.30;;;3.00;;
43216;SDS011;60511;42.686;23.300;2023-04-15T03:08:39;3.30;;;2.83;;
43216;SDS011;60511;42.686;23.300;2023-04-15T03:10:40;3.60;;;3.05;;
43216;SDS011;60511;42.686;23.300;2023-04-15T03:12:41;3.67;;;3.13;;
43216;SDS011;60511;42.686;23.300;2023-04-15T03:14:41;3.08;;;2.75;;
43216;SDS011;60511;42.686;23.300;2023-04-15T03:16:41;3.42;;;2.72;;
43216;SDS011;60511;42.686;23.300;2023-04-15T03:18:42;4.10;;;2.83;;
43216;SDS011;60511;42.686;23.300;2023-04-15T03:20:42;4.40;;;2.88;;
43216;SDS011;60511;42.686;23.300;2023-04-15T03:22:43;3.25;;;2.92;;
43216;SDS011;60511;42.686;23.300;2023-04-15T03:24:43;3.85;;;3.13;;
43216;SDS011;60511;42.686;23.300;2023-04-15T03:26:43;2.80;;;2.50;;
43216;SDS011;60511;42.686;23.300;2023-04-15T03:28:44;3.80;;;3.05;;
43216;SDS011;60511;42.686;23.300;2023-04-15T03:30:44;3.13;;;2.83;;
43216;SDS011;60511;42.686;23.300;2023-04-15T03:32:45;3.47;;;2.97;;
43216;SDS011;60511;42.686;23.300;2023-04-15T03:34:45;4.10;;;3.10;;
43216;SDS011;60511;42.686;23.300;2023-04-15T03:36:46;4.15;;;3.15;;
43216;SDS011;60511;42.686;23.300;2023-04-15T03:38:46;3.08;;;2.85;;
43216;SDS011;60511;42.686;23.300;2023-04-15T03:40:48;4.03;;;3.17;;
43216;SDS011;60511;42.686;23.300;2023-04-15T03:42:48;3.25;;;2.80;;
43216;SDS011;60511;42.686;23.300;2023-04-15T03:44:49;3.15;;;2.78;;
43216;SDS011;60511;42.686;23.300;2023-04-15T03:46:49;4.05;;;2.85;;
43216;SDS011;60511;42.686;23.300;2023-04-15T03:48:50;3.40;;;2.85;;
43216;SDS011;60511;42.686;23.300;2023-04-15T03:50:50;4.18;;;3.50;;
43216;SDS011;60511;42.686;23.300;2023-04-15T03:52:51;3.80;;;3.00;;
43216;SDS011;60511;42.686;23.300;2023-04-15T03:54:51;3.00;;;2.70;;
43216;SDS011;60511;42.686;23.300;2023-04-15T03:56:52;3.15;;;2.75;;
43216;SDS011;60511;42.686;23.300;2023-04-15T03:58:52;3.70;;;3.08;;
43216;SDS011;60511;42.686;23.300;2023-04-15T04:00:52;3.40;;;2.83;;
43216;SDS011;60511;42.686;23.300;2023-04-15T04:02:53;4.43;;;3.20;;
43216;SDS011;60511;42.686;23.300;2023-04-15T04:04:54;3.60;;;2.95;;
43216;SDS011;60511;42.686;23.300;2023-04-15T04:06:54;3.63;;;3.13;;
43216;SDS011;60511;42.686;23.300;2023-04-15T04:08:55;4.10;;;2.90;;
43216;SDS011;60511;42.686;23.300;2023-04-15T04:10:56;3.90;;;3.30;;
43216;SDS011;60511;42.686;23.300;2023-04-15T04:12:57;3.47;;;3.17;;
43216;SDS011;60511;42.686;23.300;2023-04-15T04:14:57;3.47;;;3.03;;
43216;SDS011;60511;42.686;23.300;2023-04-15T04:16:57;3.13;;;2.63;;
43216;SDS011;60511;42.686;23.300;2023-04-15T04:18:58;3.42;;;3.10;;
43216;SDS011;60511;42.686;23.300;2023-04-15T04:20:58;3.58;;;2.90;;
43216;SDS011;60511;42.686;23.300;2023-04-15T04:22:59;3.20;;;2.90;;
43216;SDS011;60511;42.686;23.300;2023-04-15T04:25:00;4.93;;;3.15;;
43216;SDS011;60511;42.686;23.300;2023-04-15T04:27:01;3.72;;;2.80;;
43216;SDS011;60511;42.686;23.300;2023-04-15T04:29:02;3.33;;;2.85;;
43216;SDS011;60511;42.686;23.300;2023-04-15T04:31:02;3.55;;;3.25;;
43216;SDS011;60511;42.686;23.300;2023-04-15T04:33:03;3.75;;;3.10;;
43216;SDS011;60511;42.686;23.300;2023-04-15T04:35:03;3.38;;;2.95;;
43216;SDS011;60511;42.686;23.300;2023-04-15T04:37:04;3.47;;;3.17;;
43216;SDS011;60511;42.686;23.300;2023-04-15T04:39:04;3.17;;;2.85;;
43216;SDS011;60511;42.686;23.300;2023-04-15T04:41:05;4.13;;;3.05;;
43216;SDS011;60511;42.686;23.300;2023-04-15T04:43:05;4.05;;;3.03;;
43216;SDS011;60511;42.686;23.300;2023-04-15T04:45:06;4.45;;;3.05;;
43216;SDS011;60511;42.686;23.300;2023-04-15T04:47:07;3.97;;;3.22;;
43216;SDS011;60511;42.686;23.300;2023-04-15T04:49:08;3.67;;;2.60;;
43216;SDS011;60511;42.686;23.300;2023-04-15T04:51:08;3.13;;;2.83;;
43216;SDS011;60511;42.686;23.300;2023-04-15T04:53:09;3.33;;;3.03;;
43216;SDS011;60511;42.686;23.300;2023-04-15T04:55:09;4.18;;;2.97;;
43216;SDS011;60511;42.686;23.300;2023-04-15T04:57:10;3.60;;;2.63;;
43216;SDS011;60511;42.686;23.300;2023-04-15T04:59:12;3.90;;;3.33;;
43216;SDS011;60511;42.686;23.300;2023-04-15T05:01:13;4.22;;;3.33;;
43216;SDS011;60511;42.686;23.300;2023-04-15T05:03:13;3.28;;;2.97;;
43216;SDS011;60511;42.686;23.300;2023-04-15T05:05:13;3.38;;;2.83;;
43216;SDS011;60511;42.686;23.300;2023-04-15T05:07:14;3.50;;;3.05;;
43216;SDS011;60511;42.686;23.300;2023-04-15T05:09:14;3.13;;;2.75;;
43216;SDS011;60511;42.686;23.300;2023-04-15T05:11:15;3.67;;;3.28;;
43216;SDS011;60511;42.686;23.300;2023-04-15T05:13:15;3.72;;;3.33;;
43216;SDS011;60511;42.686;23.300;2023-04-15T05:15:16;3.83;;;3.22;;
43216;SDS011;60511;42.686;23.300;2023-04-15T05:17:16;5.22;;;3.42;;
43216;SDS011;60511;42.686;23.300;2023-04-15T05:19:17;3.60;;;2.95;;
43216;SDS011;60511;42.686;23.300;2023-04-15T05:21:17;4.40;;;3.53;;
43216;SDS011;60511;42.686;23.300;2023-04-15T05:23:18;3.63;;;2.95;;
43216;SDS011;60511;42.686;23.300;2023-04-15T05:25:19;3.22;;;2.75;;
43216;SDS011;60511;42.686;23.300;2023-04-15T05:27:19;4.13;;;3.40;;
43216;SDS011;60511;42.686;23.300;2023-04-15T05:29:21;4.50;;;3.45;;
43216;SDS011;60511;42.686;23.300;2023-04-15T05:31:21;4.10;;;3.60;;
43216;SDS011;60511;42.686;23.300;2023-04-15T05:33:22;3.60;;;3.03;;
43216;SDS011;60511;42.686;23.300;2023-04-15T05:35:23;3.88;;;3.47;;
43216;SDS011;60511;42.686;23.300;2023-04-15T05:37:23;3.83;;;3.42;;
43216;SDS011;60511;42.686;23.300;2023-04-15T05:39:23;3.85;;;3.28;;
43216;SDS011;60511;42.686;23.300;2023-04-15T05:41:24;4.22;;;3.30;;
43216;SDS011;60511;42.686;23.300;2023-04-15T05:43:25;4.68;;;3.90;;
43216;SDS011;60511;42.686;23.300;2023-04-15T05:45:25;4.03;;;3.63;;
43216;SDS011;60511;42.686;23.300;2023-04-15T05:47:26;4.03;;;3.30;;
43216;SDS011;60511;42.686;23.300;2023-04-15T05:49:26;5.32;;;3.17;;
43216;SDS011;60511;42.686;23.300;2023-04-15T05:51:27;3.60;;;3.28;;
43216;SDS011;60511;42.686;23.300;2023-04-15T05:53:27;4.80;;;3.55;;
43216;SDS011;60511;42.686;23.300;2023-04-15T05:55:28;5.40;;;3.33;;
43216;SDS011;60511;42.686;23.300;2023-04-15T05:57:28;4.32;;;3.55;;
43216;SDS011;60511;42.686;23.300;2023-04-15T05:59:28;4.00;;;3.20;;
43216;SDS011;60511;42.686;23.300;2023-04-15T06:01:29;3.28;;;2.97;;
43216;SDS011;60511;42.686;23.300;2023-04-15T06:03:30;3.53;;;2.90;;
43216;SDS011;60511;42.686;23.300;2023-04-15T06:05:30;3.53;;;2.97;;
43216;SDS011;60511;42.686;23.300;2023-04-15T06:07:31;4.18;;;3.35;;
43216;SDS011;60511;42.686;23.300;2023-04-15T06:09:31;3.35;;;3.05;;
43216;SDS011;60511;42.686;23.300;2023-04-15T06:11:32;3.58;;;3.28;;
43216;SDS011;60511;42.686;23.300;2023-04-15T06:13:32;4.45;;;3.50;;
43216;SDS011;60511;42.686;23.300;2023-04-15T06:15:34;3.67;;;3.33;;
43216;SDS011;60511;42.686;23.300;2023-04-15T06:17:34;3.65;;;3.05;;
43216;SDS011;60511;42.686;23.300;2023-04-15T06:19:35;3.92;;;3.10;;
43216;SDS011;60511;42.686;23.300;2023-04-15T06:21:35;3.65;;;3.20;;
43216;SDS011;60511;42.686;23.300;2023-04-15T06:23:37;3.78;;;3.47;;
43216;SDS011;60511;42.686;23.300;2023-04-15T06:25:40;4.53;;;3.47;;
43216;SDS011;60511;42.686;23.300;2023-04-15T06:27:40;4.90;;;3.85;;
43216;SDS011;60511;42.686;23.300;2023-04-15T06:29:41;2.80;;;2.50;;
43216;SDS011;60511;42.686;23.300;2023-04-15T06:31:41;4.38;;;3.83;;
43216;SDS011;60511;42.686;23.300;2023-04-15T06:33:42;3.88;;;3.47;;
43216;SDS011;60511;42.686;23.300;2023-04-15T06:35:42;4.40;;;3.97;;
43216;SDS011;60511;42.686;23.300;2023-04-15T06:37:42;4.15;;;3.10;;
43216;SDS011;60511;42.686;23.300;2023-04-15T06:39:43;4.45;;;3.15;;
43216;SDS011;60511;42.686;23.300;2023-04-15T06:41:43;4.68;;;3.47;;
43216;SDS011;60511;42.686;23.300;2023-04-15T06:43:44;3.78;;;3.40;;
43216;SDS011;60511;42.686;23.300;2023-04-15T06:45:44;3.22;;;2.88;;
43216;SDS011;60511;42.686;23.300;2023-04-15T06:47:45;3.10;;;2.90;;
43216;SDS011;60511;42.686;23.300;2023-04-15T06:49:45;3.30;;;2.88;;
43216;SDS011;60511;42.686;23.300;2023-04-15T06:51:46;4.20;;;3.10;;
43216;SDS011;60511;42.686;23.300;2023-04-15T06:53:46;3.40;;;2.92;;
43216;SDS011;60511;42.686;23.300;2023-04-15T06:55:46;3.90;;;3.15;;
43216;SDS011;60511;42.686;23.300;2023-04-15T06:57:47;4.40;;;3.03;;
43216;SDS011;60511;42.686;23.300;2023-04-15T06:59:47;4.07;;;2.90;;
43216;SDS011;60511;42.686;23.300;2023-04-15T07:01:48;4.45;;;3.47;;
43216;SDS011;60511;42.686;23.300;2023-04-15T07:03:48;4.28;;;2.85;;
43216;SDS011;60511;42.686;23.300;2023-04-15T07:05:48;3.58;;;3.10;;
43216;SDS011;60511;42.686;23.300;2023-04-15T07:07:49;3.10;;;2.80;;
43216;SDS011;60511;42.686;23.300;2023-04-15T07:09:49;3.10;;;2.80;;
43216;SDS011;60511;42.686;23.300;2023-04-15T07:11:50;4.07;;;3.35;;
43216;SDS011;60511;42.686;23.300;2023-04-15T07:13:51;3.47;;;3.15;;
43216;SDS011;60511;42.686;23.300;2023-04-15T07:15:51;3.55;;;3.25;;
43216;SDS011;60511;42.686;23.300;2023-04-15T07:17:52;4.03;;;3.63;;
43216;SDS011;60511;42.686;23.300;2023-04-15T07:19:52;4.15;;;3.03;;
43216;SDS011;60511;42.686;23.300;2023-04-15T07:21:53;3.90;;;2.92;;
43216;SDS011;60511;42.686;23.300;2023-04-15T07:23:53;4.25;;;2.80;;
43216;SDS011;60511;42.686;23.300;2023-04-15T07:25:54;3.88;;;3.30;;
43216;SDS011;60511;42.686;23.300;2023-04-15T07:27:54;3.85;;;3.00;;
43216;SDS011;60511;42.686;23.300;2023-04-15T07:29:56;4.78;;;2.92;;
43216;SDS011;60511;42.686;23.300;2023-04-15T07:31:56;3.35;;;3.05;;
43216;SDS011;60511;42.686;23.300;2023-04-15T07:33:57;3.70;;;2.97;;
43216;SDS011;60511;42.686;23.300;2023-04-15T07:35:57;3.08;;;2.78;;
43216;SDS011;60511;42.686;23.300;2023-04-15T07:37:58;3.85;;;3.35;;
43216;SDS011;60511;42.686;23.300;2023-04-15T07:39:58;4.00;;;3.00;;
43216;SDS011;60511;42.686;23.300;2023-04-15T07:41:58;4.97;;;3.17;;
43216;SDS011;60511;42.686;23.300;2023-04-15T07:43:59;3.75;;;2.70;;
43216;SDS011;60511;42.686;23.300;2023-04-15T07:45:59;5.45;;;3.10;;
43216;SDS011;60511;42.686;23.300;2023-04-15T07:48:00;3.40;;;3.03;;
43216;SDS011;60511;42.686;23.300;2023-04-15T07:50:01;3.35;;;2.63;;
43216;SDS011;60511;42.686;23.300;2023-04-15T07:52:01;3.05;;;2.72;;
43216;SDS011;60511;42.686;23.300;2023-04-15T07:54:02;3.00;;;2.67;;
43216;SDS011;60511;42.686;23.300;2023-04-15T07:56:03;3.55;;;3.15;;
43216;SDS011;60511;42.686;23.300;2023-04-15T07:58:04;4.22;;;3.15;;
43216;SDS011;60511;42.686;23.300;2023-04-15T08:00:05;5.88;;;3.20;;
43216;SDS011;60511;42.686;23.300;2023-04-15T08:02:06;3.35;;;2.70;;
43216;SDS011;60511;42.686;23.300;2023-04-15T08:04:07;4.25;;;3.08;;
43216;SDS011;60511;42.686;23.300;2023-04-15T08:06:07;3.70;;;3.38;;
43216;SDS011;60511;42.686;23.300;2023-04-15T08:08:08;4.03;;;3.53;;
43216;SDS011;60511;42.686;23.300;2023-04-15T08:10:09;4.30;;;2.85;;
43216;SDS011;60511;42.686;23.300;2023-04-15T08:12:11;2.80;;;2.55;;
43216;SDS011;60511;42.686;23.300;2023-04-15T08:14:12;3.50;;;3.17;;
43216;SDS011;60511;42.686;23.300;2023-04-15T08:16:14;3.10;;;2.80;;
43216;SDS011;60511;42.686;23.300;2023-04-15T08:18:17;4.47;;;3.20;;
43216;SDS011;60511;42.686;23.300;2023-04-15T08:20:18;4.47;;;2.83;;
43216;SDS011;60511;42.686;23.300;2023-04-15T08:22:19;4.00;;;3.05;;
43216;SDS011;60511;42.686;23.300;2023-04-15T08:24:20;3.25;;;2.80;;
43216;SDS011;60511;42.686;23.300;2023-04-15T08:26:20;5.68;;;3.00;;
43216;SDS011;60511;42.686;23.300;2023-04-15T08:28:21;4.22;;;2.63;;
43216;SDS011;60511;42.686;23.300;2023-04-15T08:30:21;3.65;;;2.70;;
43216;SDS011;60511;42.686;23.300;2023-04-15T08:32:22;3.33;;;2.88;;
43216;SDS011;60511;42.686;23.300;2023-04-15T08:34:25;3.53;;;2.88;;
43216;SDS011;60511;42.686;23.300;2023-04-15T08:36:26;5.28;;;3.53;;
43216;SDS011;60511;42.686;23.300;2023-04-15T08:38:27;3.28;;;2.95;;
43216;SDS011;60511;42.686;23.300;2023-04-15T08:40:29;3.13;;;2.67;;
43216;SDS011;60511;42.686;23.300;2023-04-15T08:42:43;3.22;;;2.90;;
43216;SDS011;60511;42.686;23.300;2023-04-15T08:44:47;4.22;;;2.65;;
43216;SDS011;60511;42.686;23.300;2023-04-15T08:46:48;3.80;;;2.65;;
43216;SDS011;60511;42.686;23.300;2023-04-15T08:48:51;4.10;;;2.97;;
43216;SDS011;60511;42.686;23.300;2023-04-15T08:50:55;4.47;;;3.40;;
43216;SDS011;60511;42.686;23.300;2023-04-15T08:52:56;4.82;;;3.17;;
43216;SDS011;60511;42.686;23.300;2023-04-15T08:54:59;6.75;;;3.42;;
43216;SDS011;60511;42.686;23.300;2023-04-15T08:57:01;3.30;;;2.60;;
43216;SDS011;60511;42.686;23.300;2023-04-15T08:59:02;3.50;;;2.70;;
43216;SDS011;60511;42.686;23.300;2023-04-15T09:01:04;3.50;;;2.67;;
43216;SDS011;60511;42.686;23.300;2023-04-15T09:03:06;5.03;;;2.97;;
43216;SDS011;60511;42.686;23.300;2023-04-15T09:05:08;4.53;;;2.73;;
43216;SDS011;60511;42.686;23.300;2023-04-15T09:07:08;5.57;;;2.75;;
43216;SDS011;60511;42.686;23.300;2023-04-15T09:09:09;4.30;;;2.80;;
43216;SDS011;60511;42.686;23.300;2023-04-15T09:11:09;3.17;;;2.78;;
43216;SDS011;60511;42.686;23.300;2023-04-15T09:13:10;3.05;;;2.65;;
43216;SDS011;60511;42.686;23.300;2023-04-15T09:15:11;3.30;;;2.50;;
43216;SDS011;60511;42.686;23.300;2023-04-15T09:17:11;3.40;;;3.10;;
43216;SDS011;60511;42.686;23.300;2023-04-15T09:19:22;3.45;;;2.70;;
43216;SDS011;60511;42.686;23.300;2023-04-15T09:21:23;3.10;;;2.63;;
43216;SDS011;60511;42.686;23.300;2023-04-15T09:23:23;3.53;;;2.80;;
43216;SDS011;60511;42.686;23.300;2023-04-15T09:25:25;3.17;;;2.67;;
43216;SDS011;60511;42.686;23.300;2023-04-15T09:27:27;2.78;;;2.58;;
43216;SDS011;60511;42.686;23.300;2023-04-15T09:29:27;2.83;;;2.42;;
43216;SDS011;60511;42.686;23.300;2023-04-15T09:31:28;3.22;;;2.80;;
43216;SDS011;60511;42.686;23.300;2023-04-15T09:33:30;3.92;;;2.72;;
43216;SDS011;60511;42.686;23.300;2023-04-15T09:35:30;4.57;;;3.08;;
43216;SDS011;60511;42.686;23.300;2023-04-15T09:37:34;4.20;;;2.53;;
43216;SDS011;60511;42.686;23.300;2023-04-15T09:39:48;4.20;;;2.80;;
43216;SDS011;60511;42.686;23.300;2023-04-15T09:42:08;3.03;;;2.70;;
43216;SDS011;60511;42.686;23.300;2023-04-15T09:44:24;3.80;;;2.80;;
43216;SDS011;60511;42.686;23.300;2023-04-15T09:46:44;4.38;;;2.83;;
43216;SDS011;60511;42.686;23.300;2023-04-15T09:48:45;3.30;;;2.30;;
43216;SDS011;60511;42.686;23.300;2023-04-15T09:50:46;3.85;;;2.40;;
43216;SDS011;60511;42.686;23.300;2023-04-15T09:52:48;2.90;;;2.63;;
43216;SDS011;60511;42.686;23.300;2023-04-15T09:54:50;3.10;;;2.80;;
43216;SDS011;60511;42.686;23.300;2023-04-15T09:56:52;3.80;;;2.72;;
43216;SDS011;60511;42.686;23.300;2023-04-15T09:58:55;3.60;;;2.80;;
43216;SDS011;60511;42.686;23.300;2023-04-15T10:00:56;4.88;;;3.08;;
43216;SDS011;60511;42.686;23.300;2023-04-15T10:02:58;2.88;;;2.22;;
43216;SDS011;60511;42.686;23.300;2023-04-15T10:04:59;2.58;;;1.92;;
43216;SDS011;60511;42.686;23.300;2023-04-15T10:07:02;2.33;;;1.98;;
43216;SDS011;60511;42.686;23.300;2023-04-15T10:11:05;3.28;;;2.47;;
43216;SDS011;60511;42.686;23.300;2023-04-15T10:13:06;3.58;;;2.28;;
43216;SDS011;60511;42.686;23.300;2023-04-15T10:15:10;2.60;;;2.28;;
43216;SDS011;60511;42.686;23.300;2023-04-15T10:17:16;3.20;;;2.53;;
43216;SDS011;60511;42.686;23.300;2023-04-15T10:19:21;3.95;;;2.28;;
43216;SDS011;60511;42.686;23.300;2023-04-15T10:21:24;3.47;;;2.00;;
43216;SDS011;60511;42.686;23.300;2023-04-15T10:23:27;3.50;;;2.35;;
43216;SDS011;60511;42.686;23.300;2023-04-15T10:25:27;2.00;;;1.80;;
43216;SDS011;60511;42.686;23.300;2023-04-15T10:27:28;3.03;;;2.35;;
43216;SDS011;60511;42.686;23.300;2023-04-15T10:29:30;3.85;;;2.55;;
43216;SDS011;60511;42.686;23.300;2023-04-15T10:31:30;2.38;;;2.03;;
43216;SDS011;60511;42.686;23.300;2023-04-15T10:33:31;2.60;;;2.28;;
43216;SDS011;60511;42.686;23.300;2023-04-15T10:35:33;3.20;;;2.25;;
43216;SDS011;60511;42.686;23.300;2023-04-15T10:37:34;1.95;;;1.75;;
43216;SDS011;60511;42.686;23.300;2023-04-15T10:41:37;3.13;;;2.38;;
43216;SDS011;60511;42.686;23.300;2023-04-15T10:43:38;4.03;;;2.30;;
43216;SDS011;60511;42.686;23.300;2023-04-15T10:45:38;3.47;;;2.30;;
43216;SDS011;60511;42.686;23.300;2023-04-15T10:47:38;3.00;;;2.00;;
43216;SDS011;60511;42.686;23.300;2023-04-15T10:49:43;2.22;;;2.03;;
43216;SDS011;60511;42.686;23.300;2023-04-15T10:52:04;2.92;;;2.58;;
43216;SDS011;60511;42.686;23.300;2023-04-15T10:54:14;2.35;;;2.03;;
43216;SDS011;60511;42.686;23.300;2023-04-15T10:56:15;2.88;;;2.08;;
43216;SDS011;60511;42.686;23.300;2023-04-15T10:58:16;3.17;;;2.30;;
43216;SDS011;60511;42.686;23.300;2023-04-15T11:00:17;2.35;;;2.15;;
43216;SDS011;60511;42.686;23.300;2023-04-15T11:02:18;2.85;;;2.03;;
43216;SDS011;60511;42.686;23.300;2023-04-15T11:06:50;2.10;;;1.90;;
43216;SDS011;60511;42.686;23.300;2023-04-15T11:09:05;2.92;;;1.92;;
43216;SDS011;60511;42.686;23.300;2023-04-15T11:11:08;3.85;;;1.60;;
43216;SDS011;60511;42.686;23.300;2023-04-15T11:17:42;2.13;;;1.90;;
43216;SDS011;60511;42.686;23.300;2023-04-15T11:19:42;1.83;;;1.60;;
43216;SDS011;60511;42.686;23.300;2023-04-15T11:21:43;1.90;;;1.70;;
43216;SDS011;60511;42.686;23.300;2023-04-15T11:23:44;2.47;;;2.00;;
43216;SDS011;60511;42.686;23.300;2023-04-15T11:25:46;2.50;;;2.00;;
43216;SDS011;60511;42.686;23.300;2023-04-15T11:27:47;2.63;;;2.22;;
43216;SDS011;60511;42.686;23.300;2023-04-15T11:29:49;3.28;;;2.10;;
43216;SDS011;60511;42.686;23.300;2023-04-15T11:31:49;2.92;;;2.33;;
43216;SDS011;60511;42.686;23.300;2023-04-15T11:33:54;1.98;;;1.75;;
43216;SDS011;60511;42.686;23.300;2023-04-15T11:35:58;2.40;;;1.98;;
43216;SDS011;60511;42.686;23.300;2023-04-15T11:38:01;2.28;;;1.70;;
43216;SDS011;60511;42.686;23.300;2023-04-15T11:40:07;2.45;;;1.80;;
43216;SDS011;60511;42.686;23.300;2023-04-15T11:42:17;2.17;;;1.98;;
43216;SDS011;60511;42.686;23.300;2023-04-15T11:44:17;3.67;;;2.13;;
43216;SDS011;60511;42.686;23.300;2023-04-15T11:46:18;2.45;;;1.80;;
43216;SDS011;60511;42.686;23.300;2023-04-15T11:48:21;2.65;;;1.77;;
43216;SDS011;60511;42.686;23.300;2023-04-15T11:50:24;2.42;;;2.22;;
43216;SDS011;60511;42.686;23.300;2023-04-15T11:52:24;2.28;;;1.67;;
43216;SDS011;60511;42.686;23.300;2023-04-15T11:54:25;2.75;;;1.55;;
43216;SDS011;60511;42.686;23.300;2023-04-15T11:56:25;3.55;;;2.25;;
43216;SDS011;60511;42.686;23.300;2023-04-15T11:58:26;2.38;;;1.83;;
43216;SDS011;60511;42.686;23.300;2023-04-15T12:00:28;2.05;;;1.80;;
43216;SDS011;60511;42.686;23.300;2023-04-15T12:02:31;2.20;;;1.65;;
43216;SDS011;60511;42.686;23.300;2023-04-15T12:04:35;2.28;;;1.90;;
43216;SDS011;60511;42.686;23.300;2023-04-15T12:06:36;2.25;;;1.63;;
43216;SDS011;60511;42.686;23.300;2023-04-15T12:10:59;2.40;;;1.60;;
43216;SDS011;60511;42.686;23.300;2023-04-15T12:12:59;2.22;;;1.67;;
43216;SDS011;60511;42.686;23.300;2023-04-15T12:15:00;1.77;;;1.30;;